createdAt,value
2018-02-17T00:01:01.057Z,19.07
2018-02-17T00:03:29.297Z,18.50
2018-02-17T00:05:56.768Z,22.47
2018-02-17T00:08:24.224Z,16.43
2018-02-17T00:10:51.702Z,14.77
2018-02-17T00:13:19.164Z,16.20
2018-02-17T00:15:46.635Z,14.33
2018-02-17T00:18:14.097Z,15.73
2018-02-17T00:20:41.561Z,21.43
2018-02-17T00:23:09.033Z,18.57
2018-02-17T00:25:36.509Z,26.97
2018-02-17T00:28:04.733Z,24.23
2018-02-17T00:30:32.192Z,20.57
2018-02-17T00:32:59.671Z,19.40
2018-02-17T00:35:27.171Z,20.23
2018-02-17T00:37:54.625Z,24.70
2018-02-17T00:40:22.113Z,24.30
2018-02-17T00:42:49.556Z,19.23
2018-02-17T00:45:17.024Z,19.43
2018-02-17T00:47:44.483Z,18.53
2018-02-17T00:50:11.991Z,25.20
2018-02-17T00:52:39.447Z,18.07
2018-02-17T00:55:06.909Z,17.53
2018-02-17T00:57:34.373Z,19.27
2018-02-17T01:00:01.821Z,18.80
2018-02-17T01:02:30.045Z,17.70
2018-02-17T01:04:57.500Z,19.87
2018-02-17T01:07:24.965Z,17.10
2018-02-17T01:09:52.422Z,17.53
2018-02-17T01:12:19.889Z,19.37
2018-02-17T01:14:47.347Z,18.43
2018-02-17T01:17:14.825Z,15.50
2018-02-17T01:19:42.287Z,13.53
2018-02-17T01:22:09.750Z,17.63
2018-02-17T01:24:37.206Z,17.77
2018-02-17T01:27:04.685Z,19.80
2018-02-17T01:29:32.145Z,18.37
2018-02-17T01:31:59.601Z,17.13
2018-02-17T01:34:27.068Z,19.60
2018-02-17T01:36:54.528Z,16.00
2018-02-17T01:39:21.994Z,18.20
2018-02-17T01:41:49.460Z,23.57
2018-02-17T01:44:16.917Z,25.50
2018-02-17T01:46:44.401Z,24.70
2018-02-17T01:49:11.853Z,19.27
2018-02-17T01:51:39.345Z,21.67
2018-02-17T01:54:06.797Z,25.47
2018-02-17T01:56:34.249Z,20.67
2018-02-17T01:59:02.477Z,17.40
2018-02-17T02:01:30.693Z,22.10
2018-02-17T02:03:58.149Z,16.93
2018-02-17T02:06:25.602Z,19.17
2018-02-17T02:08:53.058Z,22.63
2018-02-17T02:11:20.512Z,19.13
2018-02-17T02:13:48.741Z,19.80
2018-02-17T02:16:16.203Z,20.57
2018-02-17T02:18:43.670Z,18.27
2018-02-17T02:21:11.131Z,21.47
2018-02-17T02:23:38.590Z,21.97
2018-02-17T02:26:06.065Z,23.27
2018-02-17T02:28:33.529Z,20.93
2018-02-17T02:31:01.018Z,26.63
2018-02-17T02:33:28.464Z,22.60
2018-02-17T02:35:55.923Z,22.87
2018-02-17T02:38:23.387Z,27.87
2018-02-17T02:40:50.853Z,24.33
2018-02-17T02:43:18.307Z,22.23
2018-02-17T02:45:45.764Z,19.23
2018-02-17T02:48:13.234Z,20.73
2018-02-17T02:50:40.694Z,22.17
2018-02-17T02:53:08.156Z,26.83
2018-02-17T02:55:35.605Z,21.90
2018-02-17T02:58:03.065Z,23.47
2018-02-17T03:00:30.518Z,24.43
2018-02-17T03:02:57.985Z,32.00
2018-02-17T03:05:25.430Z,24.80
2018-02-17T03:07:52.888Z,25.63
2018-02-17T03:10:20.353Z,30.23
2018-02-17T03:12:47.815Z,25.40
2018-02-17T03:15:15.313Z,23.80
2018-02-17T03:17:42.773Z,27.33
2018-02-17T03:20:10.229Z,25.27
2018-02-17T03:22:37.674Z,23.97
2018-02-17T03:25:05.926Z,26.53
2018-02-17T03:27:33.367Z,26.73
2018-02-17T03:30:01.599Z,24.97
2018-02-17T03:32:29.867Z,24.67
2018-02-17T03:34:57.326Z,23.63
2018-02-17T03:37:24.797Z,21.50
2018-02-17T03:39:52.260Z,26.13
2018-02-17T03:42:19.711Z,22.80
2018-02-17T03:44:47.169Z,26.23
2018-02-17T03:47:14.616Z,25.27
2018-02-17T03:49:42.084Z,28.53
2018-02-17T03:52:09.545Z,28.63
2018-02-17T03:54:37.004Z,25.90
2018-02-17T03:57:04.465Z,23.63
2018-02-17T03:59:31.928Z,23.03
2018-02-17T04:01:59.388Z,30.07
2018-02-17T04:04:26.861Z,26.47
2018-02-17T04:06:54.317Z,28.50
2018-02-17T04:09:21.777Z,27.20
2018-02-17T04:11:49.250Z,26.23
2018-02-17T04:14:16.713Z,33.10
2018-02-17T04:16:44.163Z,28.00
2018-02-17T04:19:11.636Z,31.27
2018-02-17T04:21:39.088Z,32.17
2018-02-17T04:24:06.561Z,27.07
2018-02-17T04:26:34.021Z,27.50
2018-02-17T04:29:01.480Z,32.57
2018-02-17T04:31:28.936Z,33.77
2018-02-17T04:33:56.388Z,29.63
2018-02-17T04:36:23.856Z,28.50
2018-02-17T04:38:51.325Z,35.17
2018-02-17T04:41:20.216Z,32.60
2018-02-17T04:43:53.268Z,32.27
2018-02-17T04:46:23.323Z,30.30
2018-02-17T04:48:59.284Z,35.30
2018-02-17T04:51:27.537Z,28.97
2018-02-17T04:57:02.501Z,30.03
2018-02-17T04:59:35.552Z,31.23
2018-02-17T05:02:17.896Z,31.93
2018-02-17T05:04:45.353Z,29.63
2018-02-17T05:07:13.373Z,32.33
2018-02-17T05:09:40.828Z,28.63
2018-02-17T05:12:08.286Z,29.53
2018-02-17T05:14:37.578Z,29.97
2018-02-17T05:17:07.656Z,32.37
2018-02-17T05:19:55.605Z,33.43
2018-02-17T05:22:26.656Z,33.77
2018-02-17T05:24:57.021Z,30.23
2018-02-17T05:27:28.121Z,31.77
2018-02-17T05:33:02.060Z,35.43
2018-02-17T05:35:30.333Z,34.10
2018-02-17T05:37:57.795Z,29.23
2018-02-17T05:40:40.120Z,31.23
2018-02-17T05:43:07.578Z,29.47
2018-02-17T05:45:49.920Z,33.70
2018-02-17T05:48:18.148Z,31.80
2018-02-17T05:50:45.622Z,28.87
2018-02-17T05:53:13.088Z,27.73
2018-02-17T05:55:40.607Z,32.63
2018-02-17T05:58:08.058Z,30.67
2018-02-17T06:00:35.508Z,32.17
2018-02-17T06:03:03.736Z,33.77
2018-02-17T06:05:31.190Z,34.20
2018-02-17T06:07:58.648Z,38.37
2018-02-17T06:10:26.098Z,37.60
2018-02-17T06:12:53.560Z,35.87
2018-02-17T06:15:21.020Z,37.60
2018-02-17T06:17:48.490Z,39.77
2018-02-17T06:20:15.949Z,30.30
2018-02-17T06:22:43.410Z,34.73
2018-02-17T06:25:10.870Z,33.90
2018-02-17T06:27:38.336Z,28.33
2018-02-17T06:30:05.797Z,38.00
2018-02-17T06:32:33.264Z,37.27
2018-02-17T06:35:00.718Z,36.50
2018-02-17T06:37:28.204Z,40.73
2018-02-17T06:39:55.651Z,32.00
2018-02-17T06:42:23.116Z,36.07
2018-02-17T06:44:50.566Z,30.43
2018-02-17T06:47:18.029Z,38.40
2018-02-17T06:49:45.508Z,34.37
2018-02-17T06:52:12.953Z,35.87
2018-02-17T06:54:40.414Z,33.63
2018-02-17T06:57:07.884Z,43.53
2018-02-17T06:59:35.349Z,44.63
2018-02-17T07:02:02.801Z,36.57
2018-02-17T07:04:30.265Z,40.50
2018-02-17T07:06:57.712Z,35.80
2018-02-17T07:09:25.179Z,39.57
2018-02-17T07:11:52.641Z,38.53
2018-02-17T07:14:20.098Z,38.30
2018-02-17T07:16:47.561Z,41.87
2018-02-17T07:19:15.045Z,33.87
2018-02-17T07:21:42.506Z,38.63
2018-02-17T07:24:09.967Z,38.20
2018-02-17T07:26:37.427Z,41.80
2018-02-17T07:29:04.888Z,30.47
2018-02-17T07:31:32.361Z,34.03
2018-02-17T07:33:59.825Z,36.90
2018-02-17T07:36:27.271Z,36.43
2018-02-17T07:38:54.746Z,32.77
2018-02-17T07:41:22.202Z,34.87
2018-02-17T07:43:49.660Z,35.03
2018-02-17T07:46:17.125Z,34.80
2018-02-17T07:48:44.599Z,36.63
2018-02-17T07:51:12.045Z,38.37
2018-02-17T07:53:39.514Z,41.37
2018-02-17T07:56:06.972Z,36.33
2018-02-17T07:58:34.431Z,40.90
2018-02-17T08:01:01.897Z,37.67
2018-02-17T08:03:29.362Z,35.80
2018-02-17T08:05:56.820Z,36.70
2018-02-17T08:08:24.279Z,39.00
2018-02-17T08:10:51.748Z,35.97
2018-02-17T08:13:19.214Z,39.97
2018-02-17T08:15:46.673Z,40.70
2018-02-17T08:18:14.141Z,39.13
2018-02-17T08:20:41.607Z,35.67
2018-02-17T08:23:09.064Z,39.27
2018-02-17T08:25:36.524Z,36.77
2018-02-17T08:28:03.986Z,39.60
2018-02-17T08:30:31.450Z,39.97
2018-02-17T08:32:58.908Z,35.83
2018-02-17T08:35:26.372Z,37.00
2018-02-17T08:37:53.836Z,40.60
2018-02-17T08:40:21.294Z,35.27
2018-02-17T08:42:48.749Z,35.73
2018-02-17T08:45:16.228Z,47.40
2018-02-17T08:47:43.685Z,36.47
2018-02-17T08:50:11.144Z,33.07
2018-02-17T08:52:38.608Z,35.13
2018-02-17T08:55:06.067Z,41.23
2018-02-17T08:57:33.522Z,39.83
2018-02-17T09:00:00.977Z,40.33
2018-02-17T09:02:29.203Z,39.20
2018-02-17T09:04:56.667Z,37.63
2018-02-17T09:07:24.131Z,34.67
2018-02-17T09:09:51.582Z,35.80
2018-02-17T09:12:19.049Z,41.63
2018-02-17T09:14:46.502Z,38.13
2018-02-17T09:17:13.980Z,37.90
2018-02-17T09:19:41.440Z,38.83
2018-02-17T09:22:08.909Z,40.03
2018-02-17T09:24:36.372Z,39.13
2018-02-17T09:27:03.826Z,38.27
2018-02-17T09:29:31.301Z,37.00
2018-02-17T09:31:59.720Z,35.70
2018-02-17T09:34:27.954Z,37.20
2018-02-17T09:36:55.413Z,33.80
2018-02-17T09:39:22.874Z,36.47
2018-02-17T09:41:50.324Z,37.90
2018-02-17T09:44:17.801Z,38.20
2018-02-17T09:46:45.269Z,34.87
2018-02-17T09:49:12.719Z,35.93
2018-02-17T09:51:40.185Z,32.80
2018-02-17T09:54:07.636Z,34.37
2018-02-17T09:56:35.106Z,39.93
2018-02-17T09:59:02.572Z,34.33
2018-02-17T10:01:30.027Z,33.63
2018-02-17T10:03:57.548Z,34.13
2018-02-17T10:06:24.941Z,37.83
2018-02-17T10:08:52.401Z,35.60
2018-02-17T10:11:19.879Z,39.67
2018-02-17T10:13:47.329Z,38.47
2018-02-17T10:16:14.777Z,40.23
2018-02-17T10:18:42.238Z,38.37
2018-02-17T10:21:09.689Z,36.70
2018-02-17T10:23:37.917Z,39.33
2018-02-17T10:26:05.370Z,37.83
2018-02-17T10:28:32.842Z,43.13
2018-02-17T10:31:00.310Z,49.50
2018-02-17T10:33:27.765Z,43.27
2018-02-17T10:35:55.229Z,40.07
2018-02-17T10:38:22.697Z,49.93
2018-02-17T10:40:50.152Z,43.57
2018-02-17T10:43:17.615Z,46.80
2018-02-17T10:45:45.064Z,48.27
2018-02-17T10:48:12.531Z,46.10
2018-02-17T10:50:40.018Z,42.63
2018-02-17T10:53:07.462Z,51.30
2018-02-17T10:55:37.814Z,50.23
2018-02-17T10:58:05.282Z,49.33
2018-02-17T11:00:32.725Z,51.80
2018-02-17T11:03:00.183Z,47.17
2018-02-17T11:05:27.642Z,47.90
2018-02-17T11:07:55.105Z,49.70
2018-02-17T11:10:22.569Z,49.57
2018-02-17T11:12:50.024Z,54.67
2018-02-17T11:15:17.480Z,50.13
2018-02-17T11:17:44.935Z,55.77
2018-02-17T11:20:12.401Z,48.73
2018-02-17T11:22:39.856Z,53.03
2018-02-17T11:25:07.317Z,54.67
2018-02-17T11:27:34.776Z,50.80
2018-02-17T11:30:02.247Z,55.27
2018-02-17T11:32:29.693Z,44.57
2018-02-17T11:34:57.153Z,53.67
2018-02-17T11:37:24.604Z,53.73
2018-02-17T11:39:52.833Z,56.90
2018-02-17T11:42:20.291Z,58.67
2018-02-17T11:44:47.758Z,47.63
2018-02-17T11:47:15.216Z,51.47
2018-02-17T11:49:42.678Z,47.17
2018-02-17T11:52:10.137Z,48.90
2018-02-17T11:54:37.608Z,44.83
2018-02-17T11:57:05.077Z,51.63
2018-02-17T11:59:32.599Z,50.70
2018-02-17T12:01:59.994Z,47.30
2018-02-17T12:04:27.457Z,50.97
2018-02-17T12:06:54.914Z,43.93
2018-02-17T12:09:22.381Z,45.10
2018-02-17T12:11:49.840Z,49.37
2018-02-17T12:14:17.316Z,43.60
2018-02-17T12:16:44.772Z,46.23
2018-02-17T12:19:12.220Z,47.53
2018-02-17T12:21:39.683Z,43.77
2018-02-17T12:24:07.133Z,40.93
2018-02-17T12:26:34.610Z,47.57
2018-02-17T12:29:02.078Z,38.20
2018-02-17T12:31:29.548Z,35.73
2018-02-17T12:33:57.009Z,45.47
2018-02-17T12:36:24.480Z,37.13
2018-02-17T12:38:51.937Z,34.50
2018-02-17T12:41:19.410Z,39.07
2018-02-17T12:43:46.857Z,38.23
2018-02-17T12:46:14.317Z,33.57
2018-02-17T12:48:41.777Z,31.43
2018-02-17T12:51:09.245Z,33.37
2018-02-17T12:53:36.704Z,31.30
2018-02-17T12:56:04.165Z,36.57
2018-02-17T12:58:31.643Z,31.83
2018-02-17T13:00:59.113Z,29.57
2018-02-17T13:03:26.553Z,34.77
2018-02-17T13:05:54.013Z,32.93
2018-02-17T13:08:21.470Z,30.40
2018-02-17T13:10:48.937Z,30.13
2018-02-17T13:13:16.393Z,28.83
2018-02-17T13:15:43.869Z,31.20
2018-02-17T13:18:11.330Z,29.70
2018-02-17T13:20:38.789Z,30.87
2018-02-17T13:23:07.025Z,28.63
2018-02-17T13:25:35.245Z,28.53
2018-02-17T13:28:02.704Z,31.30
2018-02-17T13:30:30.164Z,29.23
2018-02-17T13:32:57.625Z,26.13
2018-02-17T13:35:25.078Z,26.13
2018-02-17T13:37:52.541Z,27.47
2018-02-17T13:40:19.994Z,25.03
2018-02-17T13:42:47.466Z,22.37
2018-02-17T13:45:14.961Z,24.00
2018-02-17T13:47:42.445Z,22.70
2018-02-17T13:50:09.897Z,28.27
2018-02-17T13:52:37.355Z,26.30
2018-02-17T13:55:04.813Z,23.80
2018-02-17T13:57:32.273Z,22.70
2018-02-17T13:59:59.734Z,25.47
2018-02-17T14:02:27.982Z,29.40
2018-02-17T14:04:55.433Z,34.63
2018-02-17T14:07:22.913Z,31.13
2018-02-17T14:09:50.373Z,38.53
2018-02-17T14:12:17.833Z,19.87
2018-02-17T14:14:45.298Z,16.90
2018-02-17T14:17:12.765Z,17.23
2018-02-17T14:19:40.238Z,18.23
2018-02-17T14:22:07.705Z,16.47
2018-02-17T14:24:35.157Z,18.13
2018-02-17T14:27:02.616Z,14.17
2018-02-17T14:29:30.080Z,15.53
2018-02-17T14:31:57.547Z,15.53
2018-02-17T14:34:25.016Z,15.57
2018-02-17T14:36:52.478Z,16.13
2018-02-17T14:39:19.946Z,14.53
2018-02-17T14:41:47.402Z,14.10
2018-02-17T14:44:14.864Z,14.63
2018-02-17T14:46:42.330Z,14.43
2018-02-17T14:49:09.788Z,15.00
2018-02-17T14:51:37.253Z,17.13
2018-02-17T14:54:04.724Z,15.53
2018-02-17T14:56:32.197Z,15.03
2018-02-17T14:58:59.654Z,12.70
2018-02-17T15:01:27.100Z,11.90
2018-02-17T15:03:54.566Z,16.27
2018-02-17T15:06:22.031Z,15.30
2018-02-17T15:08:49.501Z,15.70
2018-02-17T15:11:16.969Z,14.57
2018-02-17T15:13:44.434Z,16.00
2018-02-17T15:16:11.892Z,16.03
2018-02-17T15:18:39.358Z,16.57
2018-02-17T15:21:06.804Z,14.13
2018-02-17T15:23:35.028Z,17.57
2018-02-17T15:26:03.258Z,15.13
2018-02-17T15:28:30.756Z,15.50
2018-02-17T15:30:58.198Z,15.03
2018-02-17T15:33:25.662Z,14.73
2018-02-17T15:35:53.127Z,14.07
2018-02-17T15:38:20.597Z,15.93
2018-02-17T15:40:48.060Z,16.10
2018-02-17T15:43:15.508Z,15.23
2018-02-17T15:45:42.969Z,16.50
2018-02-17T15:48:10.456Z,16.20
2018-02-17T15:50:37.908Z,17.17
2018-02-17T15:53:05.363Z,15.00
2018-02-17T15:55:32.822Z,16.30
2018-02-17T15:58:00.277Z,16.90
2018-02-17T16:00:27.750Z,17.33
2018-02-17T16:02:55.205Z,16.50
2018-02-17T16:05:23.461Z,18.37
2018-02-17T16:07:50.913Z,15.33
2018-02-17T16:10:18.477Z,14.63
2018-02-17T16:12:45.920Z,16.33
2018-02-17T16:15:14.148Z,14.90
2018-02-17T16:17:41.609Z,14.40
2018-02-17T16:20:09.085Z,15.77
2018-02-17T16:22:36.536Z,15.83
2018-02-17T16:25:04.009Z,14.97
2018-02-17T16:27:31.462Z,27.80
2018-02-17T16:29:58.925Z,19.03
2018-02-17T16:32:26.382Z,20.33
2018-02-17T16:34:53.844Z,17.10
2018-02-17T16:37:21.309Z,15.10
2018-02-17T16:39:48.775Z,16.03
2018-02-17T16:42:16.233Z,16.67
2018-02-17T16:44:43.707Z,15.70
2018-02-17T16:47:11.163Z,15.47
2018-02-17T16:49:38.630Z,15.53
2018-02-17T16:52:06.138Z,18.13
2018-02-17T16:54:33.569Z,14.30
2018-02-17T16:57:01.040Z,15.83
2018-02-17T16:59:28.484Z,14.33
2018-02-17T17:01:55.962Z,16.80
2018-02-17T17:04:23.421Z,17.70
2018-02-17T17:06:50.886Z,15.37
2018-02-17T17:09:18.340Z,16.90
2018-02-17T17:11:45.801Z,15.43
2018-02-17T17:14:13.276Z,17.97
2018-02-17T17:16:40.748Z,17.83
2018-02-17T17:19:08.988Z,17.30
2018-02-17T17:21:36.453Z,19.17
2018-02-17T17:24:03.908Z,19.50
2018-02-17T17:26:31.374Z,18.23
2018-02-17T17:28:58.842Z,17.93
2018-02-17T17:31:26.299Z,20.50
2018-02-17T17:33:53.763Z,22.43
2018-02-17T17:36:21.225Z,17.70
2018-02-17T17:38:48.672Z,21.27
2018-02-17T17:41:16.149Z,21.00
2018-02-17T17:43:43.602Z,20.33
2018-02-17T17:46:11.062Z,21.53
2018-02-17T17:48:38.537Z,23.87
2018-02-17T17:51:05.983Z,20.57
2018-02-17T17:53:33.449Z,23.67
2018-02-17T17:56:00.900Z,23.53
2018-02-17T17:58:28.557Z,23.27
2018-02-17T18:00:56.053Z,25.83
2018-02-17T18:03:23.522Z,26.33
2018-02-17T18:05:51.984Z,26.67
2018-02-17T18:08:19.452Z,31.20
2018-02-17T18:10:46.900Z,32.73
2018-02-17T18:13:14.365Z,30.83
2018-02-17T18:15:41.846Z,28.10
2018-02-17T18:18:09.309Z,32.37
2018-02-17T18:20:36.775Z,32.77
2018-02-17T18:23:04.241Z,35.90
2018-02-17T18:25:31.701Z,35.30
2018-02-17T18:27:59.165Z,33.13
2018-02-17T18:30:26.620Z,32.30
2018-02-17T18:32:54.094Z,31.80
2018-02-17T18:35:22.313Z,31.77
2018-02-17T18:37:50.548Z,30.97
2018-02-17T18:40:18.020Z,37.37
2018-02-17T18:42:45.488Z,35.33
2018-02-17T18:45:12.944Z,31.30
2018-02-17T18:47:40.413Z,29.37
2018-02-17T18:50:07.868Z,36.50
2018-02-17T18:52:35.338Z,37.07
2018-02-17T18:55:02.785Z,29.73
2018-02-17T18:57:30.245Z,35.73
2018-02-17T18:59:57.713Z,30.80
2018-02-17T19:02:25.163Z,32.57
2018-02-17T19:04:52.673Z,31.33
2018-02-17T19:07:20.086Z,32.60
2018-02-17T19:09:47.557Z,37.60
2018-02-17T19:12:15.023Z,31.33
2018-02-17T19:14:43.251Z,31.07
2018-02-17T19:17:11.490Z,32.57
2018-02-17T19:19:38.960Z,30.90
2018-02-17T19:22:06.410Z,26.33
2018-02-17T19:24:33.865Z,27.77
2018-02-17T19:27:01.327Z,29.73
2018-02-17T19:29:28.800Z,29.90
2018-02-17T19:31:56.250Z,31.83
2018-02-17T19:34:23.718Z,28.60
2018-02-17T19:36:51.178Z,28.00
2018-02-17T19:39:18.638Z,31.63
2018-02-17T19:41:46.100Z,28.67
2018-02-17T19:44:13.571Z,31.50
2018-02-17T19:46:41.019Z,32.80
2018-02-17T19:49:08.480Z,30.33
2018-02-17T19:51:35.949Z,32.13
2018-02-17T19:54:03.430Z,32.00
2018-02-17T19:56:30.884Z,30.87
2018-02-17T19:58:58.344Z,26.57
2018-02-17T20:01:25.797Z,27.63
2018-02-17T20:03:53.267Z,30.20
2018-02-17T20:06:20.733Z,32.00
2018-02-17T20:08:48.185Z,34.17
2018-02-17T20:11:15.651Z,29.13
2018-02-17T20:13:43.126Z,36.80
2018-02-17T20:16:10.577Z,31.60
2018-02-17T20:18:38.057Z,28.53
2018-02-17T20:21:06.294Z,28.43
2018-02-17T20:23:33.746Z,25.63
2018-02-17T20:26:01.216Z,28.07
2018-02-17T20:28:28.677Z,24.13
2018-02-17T20:30:56.141Z,30.07
2018-02-17T20:33:23.605Z,23.90
2018-02-17T20:35:51.074Z,21.70
2018-02-17T20:38:18.518Z,23.27
2018-02-17T20:40:45.977Z,24.37
2018-02-17T20:43:13.430Z,24.30
2018-02-17T20:45:41.660Z,26.50
2018-02-17T20:48:09.122Z,26.00
2018-02-17T20:50:36.580Z,23.87
2018-02-17T20:53:04.029Z,26.17
2018-02-17T20:55:31.498Z,24.03
2018-02-17T20:57:58.955Z,23.47
2018-02-17T21:00:26.429Z,21.87
2018-02-17T21:02:53.927Z,22.37
2018-02-17T21:05:21.356Z,21.43
2018-02-17T21:07:48.824Z,20.33
2018-02-17T21:10:16.304Z,21.83
2018-02-17T21:12:43.756Z,23.87
2018-02-17T21:15:11.221Z,25.13
2018-02-17T21:17:38.668Z,20.93
2018-02-17T21:20:06.128Z,26.07
2018-02-17T21:22:33.590Z,23.10
2018-02-17T21:25:01.053Z,28.80
2018-02-17T21:27:28.509Z,27.40
2018-02-17T21:29:55.978Z,23.53
2018-02-17T21:32:23.460Z,29.33
2018-02-17T21:34:50.953Z,28.27
2018-02-17T21:37:19.186Z,25.80
2018-02-17T21:39:46.657Z,25.80
2018-02-17T21:42:14.121Z,24.97
2018-02-17T21:44:41.612Z,32.63
2018-02-17T21:47:09.834Z,31.57
2018-02-17T21:49:37.299Z,30.20
2018-02-17T21:52:04.760Z,29.73
2018-02-17T21:54:32.222Z,33.03
2018-02-17T21:56:59.685Z,32.80
2018-02-17T21:59:27.138Z,34.83
2018-02-17T22:01:54.579Z,31.13
2018-02-17T22:04:22.805Z,35.67
2018-02-17T22:06:50.268Z,40.40
2018-02-17T22:09:17.718Z,44.77
2018-02-17T22:11:45.186Z,40.87
2018-02-17T22:14:12.642Z,43.70
2018-02-17T22:16:40.104Z,46.23
2018-02-17T22:19:07.566Z,38.27
2018-02-17T22:21:35.070Z,47.00
2018-02-17T22:24:02.520Z,40.23
2018-02-17T22:26:29.980Z,54.00
2018-02-17T22:28:57.441Z,50.37
2018-02-17T22:31:24.909Z,46.73
2018-02-17T22:33:52.382Z,42.40
2018-02-17T22:36:19.841Z,46.80
2018-02-17T22:38:47.302Z,55.37
2018-02-17T22:41:14.754Z,44.27
2018-02-17T22:43:42.247Z,53.30
2018-02-17T22:46:09.665Z,40.27
2018-02-17T22:48:37.157Z,49.80
2018-02-17T22:51:04.617Z,40.77
2018-02-17T22:53:32.074Z,37.90
2018-02-17T22:55:59.535Z,45.03
2018-02-17T22:58:26.989Z,48.20
2018-02-17T23:00:54.460Z,48.87
2018-02-17T23:03:21.916Z,42.83
2018-02-17T23:05:49.385Z,45.77
2018-02-17T23:08:16.851Z,41.67
2018-02-17T23:10:44.301Z,49.97
2018-02-17T23:13:11.769Z,43.97
2018-02-17T23:15:39.240Z,41.13
2018-02-17T23:18:06.705Z,46.03
2018-02-17T23:20:34.162Z,36.50
2018-02-17T23:23:01.624Z,36.97
2018-02-17T23:25:29.096Z,48.00
2018-02-17T23:27:56.548Z,45.53
2018-02-17T23:30:24.007Z,46.87
2018-02-17T23:32:51.464Z,48.43
2018-02-17T23:35:18.937Z,41.63
2018-02-17T23:37:46.405Z,46.83
2018-02-17T23:40:13.877Z,52.87
2018-02-17T23:42:41.337Z,54.10
2018-02-17T23:45:08.793Z,48.17
2018-02-17T23:47:36.254Z,44.73
2018-02-17T23:50:03.717Z,59.10
2018-02-17T23:52:31.205Z,64.13
2018-02-17T23:54:58.636Z,58.73
2018-02-17T23:57:26.868Z,62.83
2018-02-17T23:59:55.100Z,61.23
